Time;durP1;ratioP1;P1;durP2;ratioP2;P2;SDS_P1;SDS_P2;PMS_P1;PMS_P2;Temp;Humidity;BMP_temperature;BMP_pressure;BME280_temperature;BME280_humidity;BME280_pressure;Samples;Min_cycle;Max_cycle;Signal;HPM_P1;HPM_P2
2022/09/09 00:01:34;;;;;;;4.58;3.33;;;;;;;11.62;59.74;100301.64;1698841;83;21088;-72
2022/09/09 00:04:18;;;;;;;6.65;3.47;;;;;;;11.59;59.87;100306.80;1710391;82;21074;-72
2022/09/09 00:07:16;;;;;;;5.00;3.60;;;;;;;11.56;59.82;100303.61;1702135;83;21117;-69
2022/09/09 00:09:50;;;;;;;6.58;3.52;;;;;;;11.53;59.89;100294.61;1703976;83;21544;-72
2022/09/09 00:12:27;;;;;;;5.62;3.65;;;;;;;11.49;59.96;100306.09;1688959;83;21030;-70
2022/09/09 00:14:59;;;;;;;5.60;3.87;;;;;;;11.45;60.04;100299.41;1732021;81;21997;-71
2022/09/09 00:17:58;;;;;;;7.85;3.83;;;;;;;11.42;60.11;100299.74;1723242;81;21058;-71
2022/09/09 00:20:42;;;;;;;5.22;3.70;;;;;;;11.37;60.29;100297.55;1724837;81;21176;-71
2022/09/09 00:23:19;;;;;;;8.68;4.28;;;;;;;11.31;60.42;100298.19;1722429;82;21105;-68
2022/09/09 00:25:56;;;;;;;5.87;3.52;;;;;;;11.28;60.56;100295.00;1689453;82;21557;-70
2022/09/09 00:28:27;;;;;;;6.78;4.42;;;;;;;11.24;60.70;100310.45;1696771;82;21077;-70
2022/09/09 00:30:54;;;;;;;4.17;3.45;;;;;;;11.20;60.81;100309.95;1698802;82;21160;-73
2022/09/09 00:33:23;;;;;;;5.50;4.00;;;;;;;11.18;60.97;100320.39;1719330;81;21060;-71
2022/09/09 00:35:53;;;;;;;6.90;3.70;;;;;;;11.16;61.09;100325.03;1685780;83;21085;-73
2022/09/09 00:38:37;;;;;;;6.90;3.90;;;;;;;11.11;61.22;100320.20;1737829;81;21142;-71
2022/09/09 00:41:24;;;;;;;4.53;3.60;;;;;;;11.10;61.29;100325.67;1715149;81;21049;-72
2022/09/09 00:43:57;;;;;;;6.08;3.90;;;;;;;11.06;61.38;100326.47;1713491;83;21005;-71
2022/09/09 00:47:02;;;;;;;5.80;3.87;;;;;;;11.04;61.50;100332.45;1705922;81;21105;-71
2022/09/09 00:50:11;;;;;;;6.15;3.72;;;;;;;11.00;61.58;100338.56;1704625;81;21560;-73
2022/09/09 00:53:18;;;;;;;6.40;4.53;;;;;;;10.97;61.69;100336.71;1701891;83;21862;-71
2022/09/09 00:56:14;;;;;;;5.78;4.10;;;;;;;10.93;61.86;100341.53;1710392;83;21112;-71
2022/09/09 00:58:44;;;;;;;5.08;3.98;;;;;;;10.87;61.90;100335.98;1760934;80;21124;-71
2022/09/09 01:01:12;;;;;;;7.20;4.20;;;;;;;10.82;62.08;100339.95;1762015;79;21084;-73
2022/09/09 01:03:50;;;;;;;5.20;3.72;;;;;;;10.79;62.11;100343.41;1760072;80;21203;-72
2022/09/09 01:06:33;;;;;;;6.20;3.72;;;;;;;10.76;62.25;100343.23;1739019;80;21251;-72
2022/09/09 01:09:27;;;;;;;5.60;3.92;;;;;;;10.75;62.30;100346.03;1767468;80;21029;-72
2022/09/09 01:12:11;;;;;;;6.23;4.47;;;;;;;10.73;62.45;100344.03;1745254;80;21061;-73
2022/09/09 01:14:58;;;;;;;6.33;3.95;;;;;;;10.71;62.45;100352.16;1732779;80;21631;-71
2022/09/09 01:17:48;;;;;;;6.83;4.65;;;;;;;10.70;62.50;100351.83;1749310;80;21013;-72
2022/09/09 01:20:32;;;;;;;6.10;4.08;;;;;;;10.71;62.55;100352.66;1754116;80;21088;-70
2022/09/09 01:23:16;;;;;;;4.62;3.25;;;;;;;10.69;62.54;100360.77;1768835;80;21033;-70
2022/09/09 01:26:07;;;;;;;6.47;4.00;;;;;;;10.70;62.75;100357.61;1766077;79;21033;-71
2022/09/09 01:28:35;;;;;;;5.58;3.98;;;;;;;10.67;62.88;100351.30;1749828;80;21026;-70
2022/09/09 01:31:05;;;;;;;6.22;4.10;;;;;;;10.62;63.01;100348.61;1771414;80;21006;-69
2022/09/09 01:33:33;;;;;;;7.10;4.67;;;;;;;10.62;63.08;100345.95;1767761;80;21201;-70
2022/09/09 01:36:08;;;;;;;6.95;3.85;;;;;;;10.63;63.26;100345.45;1762230;80;21041;-70
2022/09/09 01:38:37;;;;;;;6.60;4.15;;;;;;;10.62;63.34;100341.97;1718436;82;22712;-68
2022/09/09 01:41:04;;;;;;;5.87;3.87;;;;;;;10.58;63.56;100341.08;1702680;82;21589;-69
2022/09/09 01:43:32;;;;;;;6.03;4.20;;;;;;;10.56;63.66;100339.89;1710450;82;21058;-71
2022/09/09 01:46:01;;;;;;;8.58;3.90;;;;;;;10.51;63.83;100334.23;1714603;82;21571;-70
2022/09/09 01:48:29;;;;;;;5.10;3.77;;;;;;;10.50;63.96;100339.69;1709947;83;21070;-71
2022/09/09 01:50:57;;;;;;;7.80;4.45;;;;;;;10.48;64.01;100336.35;1714560;82;21086;-70
2022/09/09 01:53:24;;;;;;;6.90;3.62;;;;;;;10.47;64.09;100336.86;1687089;82;21180;-70
2022/09/09 01:56:02;;;;;;;6.62;3.90;;;;;;;10.45;64.12;100337.50;1703494;82;21576;-72
2022/09/09 01:58:52;;;;;;;6.12;4.30;;;;;;;10.43;64.01;100331.01;1714550;82;22970;-70
2022/09/09 02:01:52;;;;;;;6.33;3.83;;;;;;;10.42;63.95;100329.83;1709989;82;21064;-70
2022/09/09 02:04:39;;;;;;;6.10;4.28;;;;;;;10.40;63.91;100330.47;1684525;82;21104;-73
2022/09/09 02:07:33;;;;;;;7.87;4.08;;;;;;;10.36;63.96;100325.95;1726933;82;21565;-72
2022/09/09 02:10:19;;;;;;;6.37;4.15;;;;;;;10.32;64.02;100331.23;1697185;82;21078;-73
2022/09/09 02:12:53;;;;;;;8.48;4.12;;;;;;;10.28;64.09;100333.83;1715834;82;21978;-71
2022/09/09 02:15:34;;;;;;;6.75;4.12;;;;;;;10.21;64.15;100335.41;1719432;82;21530;-70
2022/09/09 02:18:01;;;;;;;8.43;4.50;;;;;;;10.23;64.24;100342.73;1704401;82;21068;-71
2022/09/09 02:20:28;;;;;;;6.37;3.90;;;;;;;10.20;64.30;100345.20;1705328;82;21092;-73
2022/09/09 02:22:57;;;;;;;8.23;4.17;;;;;;;10.19;64.39;100341.36;1708043;82;21071;-69
2022/09/09 02:25:26;;;;;;;8.45;4.65;;;;;;;10.17;64.49;100342.84;1708192;82;21246;-71
2022/09/09 02:27:53;;;;;;;8.50;4.28;;;;;;;10.15;64.57;100344.81;1709823;83;21555;-71
2022/09/09 02:30:20;;;;;;;9.33;4.28;;;;;;;10.12;64.66;100346.45;1705611;83;21011;-70
2022/09/09 02:32:58;;;;;;;9.30;5.22;;;;;;;10.11;64.70;100343.44;1685224;82;21179;-71
2022/09/09 02:35:27;;;;;;;9.63;4.97;;;;;;;10.10;64.74;100335.16;1703055;82;21036;-68
2022/09/09 02:37:55;;;;;;;8.73;4.22;;;;;;;10.10;64.73;100332.97;1698757;82;21150;-72
2022/09/09 02:40:22;;;;;;;12.53;5.10;;;;;;;10.08;64.77;100330.45;1680570;84;21073;-72
2022/09/09 02:42:51;;;;;;;8.45;4.95;;;;;;;10.08;64.78;100341.08;1701329;82;21540;-72
2022/09/09 02:45:22;;;;;;;7.53;4.35;;;;;;;10.08;64.81;100334.94;1704247;82;21135;-70
2022/09/09 02:48:19;;;;;;;7.90;5.35;;;;;;;10.07;64.88;100331.96;1707693;83;21064;-70
2022/09/09 02:51:10;;;;;;;9.38;5.05;;;;;;;10.06;64.89;100330.28;1705698;82;21138;-70
2022/09/09 02:53:55;;;;;;;8.38;4.97;;;;;;;10.04;64.90;100329.95;1708174;82;21072;-68
2022/09/09 02:56:23;;;;;;;11.28;6.00;;;;;;;10.02;64.90;100333.25;1715044;82;21055;-70
2022/09/09 02:58:51;;;;;;;10.05;5.10;;;;;;;9.98;64.98;100327.05;1704936;82;21087;-71
2022/09/09 03:01:18;;;;;;;12.28;5.97;;;;;;;9.94;65.09;100326.50;1713490;82;21058;-71
2022/09/09 03:03:46;;;;;;;12.40;5.15;;;;;;;9.91;65.20;100328.15;1710916;82;21147;-72
2022/09/09 03:06:14;;;;;;;13.40;5.25;;;;;;;9.88;65.24;100332.92;1715512;82;21147;-71
2022/09/09 03:08:41;;;;;;;10.65;5.55;;;;;;;9.87;65.34;100335.21;1701751;82;21085;-71
2022/09/09 03:11:09;;;;;;;9.15;4.92;;;;;;;9.84;65.58;100339.84;1708677;82;21604;-69
2022/09/09 03:13:37;;;;;;;6.45;4.25;;;;;;;9.83;65.52;100338.18;1710200;82;21086;-71
2022/09/09 03:16:05;;;;;;;9.00;4.30;;;;;;;9.82;65.57;100339.65;1711524;82;21251;-71
2022/09/09 03:18:34;;;;;;;15.20;6.33;;;;;;;9.78;65.61;100331.14;1703944;82;21074;-71
2022/09/09 03:21:01;;;;;;;6.72;4.40;;;;;;;9.75;65.70;100339.89;1711762;82;21038;-72
2022/09/09 03:23:29;;;;;;;7.83;4.30;;;;;;;9.78;65.83;100359.51;1706178;82;21509;-72
2022/09/09 03:25:58;;;;;;;7.58;4.22;;;;;;;9.76;65.94;100353.52;1706957;82;21061;-72
2022/09/09 03:28:30;;;;;;;8.63;5.00;;;;;;;9.74;65.99;100352.33;1696300;82;21182;-71
2022/09/09 03:31:01;;;;;;;9.38;4.75;;;;;;;9.72;65.99;100353.47;1707666;82;21121;-70
2022/09/09 03:33:29;;;;;;;7.25;4.25;;;;;;;9.71;66.04;100353.11;1696159;82;21009;-72
2022/09/09 03:35:57;;;;;;;8.80;4.42;;;;;;;9.69;66.07;100353.25;1702515;82;21109;-71
2022/09/09 03:38:24;;;;;;;6.62;4.58;;;;;;;9.68;66.10;100352.92;1695184;82;21068;-71
2022/09/09 03:40:55;;;;;;;6.65;4.15;;;;;;;9.69;66.10;100357.73;1704130;82;21155;-71
2022/09/09 03:43:23;;;;;;;5.22;3.67;;;;;;;9.66;66.11;100362.86;1714875;83;22162;-71
2022/09/09 03:45:50;;;;;;;6.62;3.67;;;;;;;9.73;66.08;100367.06;1681987;82;21103;-72
2022/09/09 03:48:16;;;;;;;4.95;3.95;;;;;;;9.91;65.86;100361.80;1707695;82;21556;-72
2022/09/09 03:50:47;;;;;;;8.00;4.72;;;;;;;9.99;65.74;100358.75;1710549;82;21018;-72
2022/09/09 03:53:14;;;;;;;7.50;4.30;;;;;;;9.99;65.64;100358.75;1706066;83;21148;-71
2022/09/09 03:55:54;;;;;;;7.50;4.65;;;;;;;10.01;65.55;100357.28;1706224;82;21075;-70
2022/09/09 03:58:23;;;;;;;9.03;4.75;;;;;;;10.02;65.47;100349.17;1710243;82;21023;-72
2022/09/09 04:01:00;;;;;;;7.50;4.90;;;;;;;10.03;65.43;100360.13;1705312;82;21036;-70
2022/09/09 04:03:27;;;;;;;7.20;4.83;;;;;;;10.03;65.43;100368.08;1711943;82;21076;-72
2022/09/09 04:05:56;;;;;;;6.87;4.10;;;;;;;10.01;65.63;100359.94;1724868;82;21831;-71
2022/09/09 04:08:25;;;;;;;7.10;4.03;;;;;;;10.02;65.70;100354.95;1708622;82;21072;-73
2022/09/09 04:10:52;;;;;;;6.12;4.65;;;;;;;10.01;65.67;100349.32;1703278;82;21081;-71
2022/09/09 04:13:19;;;;;;;8.03;4.53;;;;;;;9.99;65.69;100349.46;1711378;82;21061;-70
2022/09/09 04:15:56;;;;;;;6.85;4.50;;;;;;;9.98;65.79;100364.20;1711857;82;21501;-73
2022/09/09 04:18:23;;;;;;;8.55;4.58;;;;;;;10.00;65.82;100374.18;1700885;82;22243;-71
2022/09/09 04:20:51;;;;;;;8.00;4.55;;;;;;;10.02;65.82;100369.55;1711267;82;21539;-73
2022/09/09 04:23:20;;;;;;;9.85;4.97;;;;;;;10.02;65.83;100366.43;1692575;82;21088;-74
2022/09/09 04:25:47;;;;;;;6.95;4.50;;;;;;;10.01;65.75;100366.07;1705608;82;21059;-72
2022/09/09 04:28:15;;;;;;;7.70;5.15;;;;;;;10.03;65.79;100377.38;1703144;82;21552;-72
2022/09/09 04:30:43;;;;;;;7.15;4.40;;;;;;;10.02;65.82;100374.86;1707641;82;21155;-72
2022/09/09 04:33:10;;;;;;;8.90;4.42;;;;;;;10.02;65.90;100382.36;1719922;82;21017;-72
2022/09/09 04:35:38;;;;;;;8.70;5.08;;;;;;;10.02;66.00;100392.98;1727909;82;21117;-72
2022/09/09 04:38:07;;;;;;;7.62;4.50;;;;;;;10.02;66.06;100400.08;1707892;82;21581;-73
2022/09/09 04:40:34;;;;;;;9.25;5.03;;;;;;;10.01;65.98;100397.92;1713858;82;21538;-73
2022/09/09 04:43:04;;;;;;;10.90;5.28;;;;;;;10.00;66.08;100396.73;1709917;81;22442;-72
2022/09/09 04:45:30;;;;;;;7.55;5.00;;;;;;;10.02;66.04;100399.61;1703306;82;21526;-71
2022/09/09 04:47:59;;;;;;;8.80;4.42;;;;;;;10.04;65.91;100399.44;1703843;82;21076;-73
2022/09/09 04:50:26;;;;;;;7.35;4.50;;;;;;;10.09;65.87;100400.34;1692696;83;21061;-72
2022/09/09 04:52:54;;;;;;;6.60;4.83;;;;;;;10.11;65.78;100411.14;1712130;82;21651;-70
2022/09/09 04:55:21;;;;;;;7.70;4.55;;;;;;;10.16;65.67;100402.72;1706748;82;21224;-72
2022/09/09 04:57:48;;;;;;;10.88;4.97;;;;;;;10.24;65.64;100408.14;1717089;82;21121;-72
2022/09/09 05:00:16;;;;;;;8.98;4.80;;;;;;;10.33;65.47;100409.91;1700836;82;21176;-72
2022/09/09 05:02:44;;;;;;;8.93;4.62;;;;;;;10.43;65.15;100405.38;1730556;81;22079;-72
2022/09/09 05:05:11;;;;;;;8.33;4.83;;;;;;;10.52;64.90;100404.13;1722918;81;21041;-71
2022/09/09 05:07:38;;;;;;;8.30;4.58;;;;;;;10.62;64.79;100403.55;1745589;81;21752;-71
2022/09/09 05:10:05;;;;;;;7.97;4.40;;;;;;;10.72;64.42;100400.34;1725214;81;21082;-69
2022/09/09 05:12:32;;;;;;;8.05;4.70;;;;;;;10.84;64.11;100396.95;1701145;82;21109;-70
2022/09/09 05:14:59;;;;;;;11.50;5.60;;;;;;;10.93;63.77;100385.39;1670821;83;21016;-71
2022/09/09 05:17:27;;;;;;;11.78;5.10;;;;;;;11.05;63.37;100387.78;1698493;82;21068;-72
2022/09/09 05:19:54;;;;;;;11.03;5.10;;;;;;;11.14;62.94;100382.36;1716269;82;21454;-72
2022/09/09 05:22:22;;;;;;;12.90;5.78;;;;;;;11.24;62.69;100384.09;1708323;82;21214;-72
2022/09/09 05:24:52;;;;;;;11.83;5.37;;;;;;;11.31;62.51;100371.84;1678774;83;21034;-72
2022/09/09 05:27:19;;;;;;;11.75;4.60;;;;;;;11.39;62.37;100362.06;1713522;82;21104;-73
2022/09/09 05:29:46;;;;;;;10.75;5.28;;;;;;;11.49;61.95;100358.45;1712344;82;21106;-73
2022/09/09 05:32:14;;;;;;;10.18;5.40;;;;;;;11.52;61.88;100360.30;1706656;82;21130;-73
2022/09/09 05:34:41;;;;;;;10.13;5.83;;;;;;;11.59;61.67;100371.16;1713206;82;21493;-71
2022/09/09 05:37:08;;;;;;;12.45;5.40;;;;;;;11.61;61.54;100369.17;1717393;82;21053;-71
2022/09/09 05:39:38;;;;;;;10.75;5.12;;;;;;;11.59;61.38;100364.52;1684542;83;21053;-72
2022/09/09 05:42:05;;;;;;;11.70;5.03;;;;;;;11.56;61.34;100366.98;1716908;82;21579;-70
2022/09/09 05:44:33;;;;;;;11.57;4.85;;;;;;;11.56;61.48;100376.29;1706809;83;21136;-71
2022/09/09 05:47:00;;;;;;;9.28;4.65;;;;;;;11.62;61.80;100384.13;1725896;81;21128;-71
2022/09/09 05:49:27;;;;;;;9.80;5.62;;;;;;;11.72;61.96;100381.34;1734982;81;21125;-72
2022/09/09 05:51:53;;;;;;;12.85;5.00;;;;;;;11.84;62.11;100391.20;1711694;81;21048;-72
2022/09/09 05:54:20;;;;;;;12.80;5.30;;;;;;;11.98;62.01;100386.14;1728029;81;21034;-72
2022/09/09 05:56:52;;;;;;;9.83;5.00;;;;;;;12.08;61.79;100380.69;1740319;81;21281;-73
2022/09/09 05:59:18;;;;;;;14.30;5.53;;;;;;;12.17;61.80;100377.05;1699470;82;21577;-73
2022/09/09 06:01:46;;;;;;;13.22;5.97;;;;;;;12.23;61.77;100374.23;1700709;82;21402;-78
2022/09/09 06:04:22;;;;;;;7.25;4.97;;;;;;;12.27;61.65;100382.23;1692613;82;28700;-78
2022/09/09 06:06:49;;;;;;;11.38;5.28;;;;;;;12.33;61.36;100392.23;1699585;81;21076;-78
2022/09/09 06:09:19;;;;;;;8.65;4.75;;;;;;;12.36;61.32;100401.72;1694418;82;21276;-75
2022/09/09 06:11:46;;;;;;;6.58;4.40;;;;;;;12.41;60.60;100406.58;1699539;82;21022;-73
2022/09/09 06:14:13;;;;;;;6.12;3.83;;;;;;;12.46;60.00;100410.89;1699210;83;21054;-74
2022/09/09 06:16:43;;;;;;;7.67;4.47;;;;;;;12.51;59.26;100401.91;1715061;82;21632;-73
2022/09/09 06:19:12;;;;;;;9.78;4.45;;;;;;;12.58;59.05;100398.94;1700974;83;21084;-72
2022/09/09 06:21:40;;;;;;;6.00;4.00;;;;;;;12.61;58.89;100396.42;1692550;83;21151;-75
2022/09/09 06:24:08;;;;;;;9.75;4.83;;;;;;;12.64;58.85;100400.11;1721937;81;21124;-75
2022/09/09 06:26:37;;;;;;;9.23;4.42;;;;;;;12.68;58.45;100398.78;1725054;81;21132;-73
2022/09/09 06:29:04;;;;;;;9.05;3.80;;;;;;;12.69;58.42;100402.61;1708314;83;21093;-73
2022/09/09 06:31:33;;;;;;;10.68;4.87;;;;;;;12.73;58.13;100401.28;1687807;83;21205;-75
2022/09/09 06:34:07;;;;;;;8.55;4.00;;;;;;;12.77;58.17;100404.45;1699539;82;21982;-73
2022/09/09 06:36:37;;;;;;;8.15;4.65;;;;;;;12.88;58.15;100398.76;1718565;81;21068;-74
2022/09/09 06:39:04;;;;;;;7.75;4.85;;;;;;;12.95;57.90;100402.94;1722122;81;21049;-73
2022/09/09 06:41:32;;;;;;;8.58;4.62;;;;;;;12.97;57.86;100399.61;1707659;81;21065;-76
2022/09/09 06:44:00;;;;;;;7.15;4.28;;;;;;;13.05;57.99;100408.10;1744442;81;21022;-74
2022/09/09 06:46:39;;;;;;;9.88;4.35;;;;;;;13.15;57.84;100394.94;1739018;81;21133;-75
2022/09/09 06:49:08;;;;;;;7.30;4.05;;;;;;;13.28;57.49;100394.91;1700711;82;21065;-74
2022/09/09 06:51:37;;;;;;;9.85;4.30;;;;;;;13.40;57.27;100400.23;1698580;81;21135;-74
2022/09/09 06:54:04;;;;;;;6.67;4.15;;;;;;;13.52;56.99;100402.03;1707806;82;21072;-73
2022/09/09 06:56:34;;;;;;;7.33;4.22;;;;;;;13.61;56.66;100401.52;1701006;82;21581;-75
2022/09/09 06:59:05;;;;;;;8.18;4.33;;;;;;;13.71;56.42;100405.67;1691274;82;21134;-74
2022/09/09 07:01:34;;;;;;;9.20;4.20;;;;;;;13.80;56.26;100405.63;1695319;83;21033;-75
2022/09/09 07:04:07;;;;;;;9.78;5.03;;;;;;;13.88;56.42;100408.27;1693948;82;21060;-72
2022/09/09 07:06:35;;;;;;;13.30;5.35;;;;;;;14.00;56.00;100422.89;1703182;81;21112;-77
2022/09/09 07:09:08;;;;;;;14.73;5.37;;;;;;;14.11;55.89;100420.35;1696243;82;21037;-77
2022/09/09 07:11:44;;;;;;;12.63;5.47;;;;;;;14.23;55.60;100426.95;1667375;83;22347;-75
2022/09/09 07:14:14;;;;;;;17.07;6.10;;;;;;;14.33;55.29;100422.25;1719002;82;21057;-77
2022/09/09 07:16:43;;;;;;;16.67;5.03;;;;;;;14.43;55.39;100423.84;1713061;83;21209;-77
2022/09/09 07:19:14;;;;;;;15.48;5.70;;;;;;;14.54;55.14;100416.75;1699648;82;21104;-78
2022/09/09 07:21:41;;;;;;;15.25;5.62;;;;;;;14.65;54.90;100412.37;1711564;82;21113;-78
2022/09/09 07:24:10;;;;;;;16.50;5.72;;;;;;;14.77;54.67;100413.29;1746118;81;21173;-77
2022/09/09 07:26:38;;;;;;;17.12;6.75;;;;;;;14.91;54.66;100413.83;1726292;81;21026;-76
2022/09/09 07:29:05;;;;;;;16.32;5.95;;;;;;;15.08;54.41;100406.50;1706980;82;21112;-75
2022/09/09 07:31:35;;;;;;;17.87;6.00;;;;;;;15.24;54.07;100408.18;1708428;82;21040;-75
2022/09/09 07:34:02;;;;;;;17.73;5.95;;;;;;;15.37;53.70;100403.55;1702521;82;21679;-74
2022/09/09 07:36:37;;;;;;;15.05;5.25;;;;;;;15.51;53.17;100399.55;1712632;82;21279;-74
2022/09/09 07:39:10;;;;;;;9.55;4.30;;;;;;;15.67;52.80;100403.06;1709292;82;21539;-76
2022/09/09 07:41:43;;;;;;;8.98;4.30;;;;;;;15.79;51.77;100401.59;1700606;82;21092;-74
2022/09/09 07:44:16;;;;;;;9.43;4.37;;;;;;;15.88;51.56;100401.00;1714917;82;21113;-73
2022/09/09 07:46:44;;;;;;;8.15;3.87;;;;;;;15.96;51.90;100406.77;1709607;82;21033;-75
2022/09/09 07:49:13;;;;;;;6.90;3.60;;;;;;;16.08;51.66;100401.23;1706428;82;21236;-75
2022/09/09 07:51:45;;;;;;;6.42;2.90;;;;;;;16.18;51.31;100391.03;1713118;82;21385;-73
2022/09/09 07:54:14;;;;;;;4.33;2.62;;;;;;;16.22;50.05;100395.00;1721906;81;21120;-71
2022/09/09 07:56:42;;;;;;;4.85;2.55;;;;;;;16.27;49.88;100407.34;1693968;82;21112;-71
2022/09/09 07:59:11;;;;;;;4.45;2.75;;;;;;;16.30;49.51;100402.09;1712854;82;21073;-74
2022/09/09 08:01:43;;;;;;;5.00;2.42;;;;;;;16.38;49.54;100410.05;1707803;82;21781;-74
2022/09/09 08:04:15;;;;;;;4.22;2.80;;;;;;;16.47;48.73;100407.54;1702374;82;21117;-73
2022/09/09 08:06:52;;;;;;;4.47;2.70;;;;;;;16.54;48.75;100412.16;1711486;82;21069;-73
2022/09/09 08:09:18;;;;;;;4.55;2.27;;;;;;;16.57;48.27;100405.88;1717146;82;21557;-72
2022/09/09 08:11:46;;;;;;;3.75;2.00;;;;;;;16.67;48.16;100398.89;1704552;81;21137;-73
2022/09/09 08:14:14;;;;;;;3.47;2.12;;;;;;;16.79;47.55;100395.17;1702733;82;21635;-74
2022/09/09 08:16:44;;;;;;;7.87;2.47;;;;;;;16.90;47.28;100389.29;1713620;82;21572;-74
2022/09/09 08:19:15;;;;;;;3.42;2.40;;;;;;;17.00;47.28;100393.83;1705467;82;21161;-73
2022/09/09 08:21:42;;;;;;;4.78;2.10;;;;;;;17.16;46.99;100390.02;1705581;82;21080;-73
2022/09/09 08:24:10;;;;;;;5.22;2.10;;;;;;;17.26;46.97;100384.31;1693448;82;22138;-74
2022/09/09 08:26:44;;;;;;;3.27;1.77;;;;;;;17.37;46.97;100385.11;1705982;83;21251;-74
2022/09/09 08:29:12;;;;;;;3.95;1.87;;;;;;;17.51;46.34;100373.93;1690994;82;21242;-72
2022/09/09 08:31:44;;;;;;;5.33;2.00;;;;;;;17.60;46.10;100381.33;1718002;82;21744;-74
2022/09/09 08:34:13;;;;;;;4.20;1.87;;;;;;;17.71;45.84;100382.61;1710538;82;21064;-73
2022/09/09 08:36:43;;;;;;;3.62;2.17;;;;;;;17.87;45.74;100390.38;1723735;82;21138;-73
2022/09/09 08:39:11;;;;;;;3.45;2.02;;;;;;;17.98;44.72;100402.39;1715334;82;21242;-73
2022/09/09 08:42:37;;;;;;;5.62;2.17;;;;;;;18.03;44.30;100396.73;1706964;82;21114;-74
2022/09/09 08:45:19;;;;;;;5.42;1.85;;;;;;;18.06;43.93;100393.66;1710150;82;21055;-74
2022/09/09 08:48:01;;;;;;;5.62;1.90;;;;;;;18.17;43.43;100382.81;1704080;82;21103;-72
2022/09/09 08:50:38;;;;;;;4.37;1.90;;;;;;;18.31;43.38;100381.51;1703713;82;21560;-74
2022/09/09 08:53:30;;;;;;;7.15;2.35;;;;;;;18.49;43.10;100374.22;1711071;82;21815;-73
2022/09/09 08:56:08;;;;;;;5.03;2.30;;;;;;;18.67;43.38;100379.81;1713239;82;21361;-74
2022/09/09 08:58:53;;;;;;;2.75;2.05;;;;;;;18.96;42.57;100372.41;1709252;82;21018;-74
2022/09/09 09:01:46;;;;;;;2.98;2.02;;;;;;;19.21;42.37;100373.94;1712524;82;21056;-74
2022/09/09 09:04:35;;;;;;;3.33;2.05;;;;;;;19.52;42.14;100376.47;1714374;82;21089;-73
2022/09/09 09:07:41;;;;;;;3.50;2.15;;;;;;;19.86;41.44;100369.95;1708026;81;21169;-73
2022/09/09 09:10:47;;;;;;;4.03;2.20;;;;;;;20.28;40.90;100356.04;1707906;82;21070;-74
2022/09/09 09:13:26;;;;;;;3.65;2.70;;;;;;;20.93;40.21;100355.80;1710001;82;21632;-75
2022/09/09 09:16:00;;;;;;;3.37;2.25;;;;;;;21.64;39.11;100348.25;1713627;82;21017;-75
2022/09/09 09:18:28;;;;;;;5.72;3.08;;;;;;;22.21;37.90;100346.02;1680971;83;21081;-75
2022/09/09 09:21:24;;;;;;;2.65;2.12;;;;;;;22.65;37.33;100339.88;1696706;82;21250;-75
2022/09/09 09:23:59;;;;;;;4.05;2.10;;;;;;;23.10;36.90;100338.00;1726590;82;21026;-74
2022/09/09 09:26:36;;;;;;;3.30;2.33;;;;;;;23.65;36.11;100336.72;1711477;82;21180;-75
2022/09/09 09:29:16;;;;;;;4.03;2.10;;;;;;;24.03;35.45;100336.69;1697116;82;21596;-76
2022/09/09 09:31:55;;;;;;;3.85;2.55;;;;;;;24.29;34.89;100336.61;1701746;83;21131;-74
2022/09/09 09:34:24;;;;;;;3.47;2.40;;;;;;;24.46;34.79;100331.74;1711057;82;21601;-71
2022/09/09 09:37:01;;;;;;;2.95;2.37;;;;;;;24.71;34.39;100334.91;1701672;82;21196;-71
2022/09/09 09:39:31;;;;;;;4.15;1.82;;;;;;;25.09;34.21;100335.19;1698596;83;21092;-72
2022/09/09 09:42:01;;;;;;;3.45;2.22;;;;;;;25.43;33.35;100351.47;1700212;83;21042;-72
2022/09/09 09:44:31;;;;;;;2.45;2.10;;;;;;;25.66;33.09;100343.05;1654161;83;21044;-73
2022/09/09 09:47:17;;;;;;;2.52;2.10;;;;;;;25.77;32.54;100347.25;1703905;82;21952;-73
2022/09/09 09:49:59;;;;;;;2.35;2.08;;;;;;;25.65;32.47;100338.70;1703548;82;21247;-71
2022/09/09 09:52:31;;;;;;;2.98;1.95;;;;;;;25.53;32.45;100327.11;1729090;80;21991;-74
2022/09/09 09:55:02;;;;;;;2.77;2.05;;;;;;;25.72;32.41;100339.86;1704999;81;21124;-74
2022/09/09 09:57:30;;;;;;;3.50;1.65;;;;;;;26.03;31.72;100341.05;1674744;83;21087;-72
2022/09/09 10:00:05;;;;;;;4.17;2.20;;;;;;;26.27;31.28;100348.93;1689241;83;21789;-72
2022/09/09 10:02:40;;;;;;;6.10;2.10;;;;;;;26.32;30.74;100340.78;1678462;83;21612;-73
2022/09/09 10:05:25;;;;;;;3.70;1.92;;;;;;;26.27;31.19;100329.87;1690041;83;21113;-72
2022/09/09 10:08:04;;;;;;;3.45;2.30;;;;;;;26.65;31.27;100340.28;1696297;81;21609;-74
2022/09/09 10:10:51;;;;;;;4.20;2.22;;;;;;;27.23;30.82;100331.67;1736560;81;21056;-72
2022/09/09 10:13:36;;;;;;;9.93;2.72;;;;;;;27.50;30.54;100333.47;1743569;81;21289;-78
2022/09/09 10:16:31;;;;;;;3.95;2.45;;;;;;;27.78;30.63;100331.41;1728508;81;21539;-80
2022/09/09 10:19:23;;;;;;;7.45;2.20;;;;;;;28.10;29.89;100337.23;1712707;82;21561;-73
2022/09/09 10:22:19;;;;;;;4.42;2.08;;;;;;;28.22;29.54;100333.70;1706991;82;21030;-74
2022/09/09 10:25:15;;;;;;;3.75;2.15;;;;;;;28.41;28.83;100332.63;1731099;81;21113;-75
2022/09/09 10:28:02;;;;;;;2.50;2.10;;;;;;;28.52;28.84;100328.03;1712295;81;21077;-75
2022/09/09 10:31:08;;;;;;;4.15;2.45;;;;;;;28.84;28.48;100316.80;1722035;81;21133;-76
2022/09/09 10:33:52;;;;;;;3.37;2.00;;;;;;;28.92;28.22;100323.62;1695681;83;21569;-75
2022/09/09 10:36:25;;;;;;;2.35;2.10;;;;;;;28.62;28.16;100315.16;1684283;83;21528;-75
2022/09/09 10:39:05;;;;;;;;;;;;;;;28.00;28.63;100317.56;1705358;81;21250;-76
2022/09/09 10:41:43;;;;;;;4.87;2.45;;;;;;;27.64;28.95;100326.97;1694933;82;21171;-75
2022/09/09 10:44:34;;;;;;;2.98;2.30;;;;;;;27.38;29.14;100326.06;1720746;81;21089;-76
2022/09/09 10:47:34;;;;;;;5.50;2.22;;;;;;;27.17;29.55;100334.64;1705967;83;21045;-75
2022/09/09 10:50:24;;;;;;;2.80;2.05;;;;;;;26.95;29.67;100327.43;1725576;81;21606;-76
2022/09/09 10:53:00;;;;;;;4.30;2.25;;;;;;;27.04;29.81;100324.50;1694865;82;21012;-75
2022/09/09 10:55:35;;;;;;;5.45;2.42;;;;;;;27.34;29.39;100324.95;1741006;81;21321;-75
2022/09/09 10:58:03;;;;;;;2.55;2.00;;;;;;;27.48;28.93;100324.73;1714539;81;21104;-72
2022/09/09 11:00:43;;;;;;;2.52;1.98;;;;;;;27.55;28.88;100316.32;1702017;83;21071;-73
2022/09/09 11:03:20;;;;;;;3.25;2.30;;;;;;;27.72;28.87;100321.02;1709229;81;21067;-76
2022/09/09 11:05:50;;;;;;;3.27;2.00;;;;;;;27.81;28.73;100334.95;1699232;81;21715;-75
2022/09/09 11:08:28;;;;;;;3.00;2.05;;;;;;;27.57;28.16;100325.87;1694621;81;21148;-76
2022/09/09 11:11:27;;;;;;;2.80;2.35;;;;;;;27.25;28.29;100325.47;1703611;82;21581;-75
2022/09/09 11:14:28;;;;;;;3.15;1.98;;;;;;;26.87;28.61;100335.56;1698784;83;21036;-76
2022/09/09 11:17:44;;;;;;;4.45;2.30;;;;;;;26.38;28.76;100322.59;1846597;77;22491;-74
2022/09/09 11:20:11;;;;;;;5.10;2.15;;;;;;;25.90;29.15;100335.97;1819346;76;21048;-85
2022/09/09 11:23:04;;;;;;;3.27;2.17;;;;;;;25.40;29.17;100330.20;1826668;76;21127;-84
2022/09/09 11:25:43;;;;;;;3.95;2.17;;;;;;;25.00;29.68;100321.76;1810411;78;20962;-84
2022/09/09 11:28:34;;;;;;;2.27;1.95;;;;;;;24.78;30.38;100331.19;1829296;76;21004;-83
2022/09/09 11:31:32;;;;;;;3.95;2.40;;;;;;;24.82;30.41;100331.83;1829841;76;21111;-83
2022/09/09 11:34:35;;;;;;;3.62;2.15;;;;;;;25.07;30.41;100326.45;1802769;78;21075;-82
2022/09/09 11:37:13;;;;;;;2.52;2.17;;;;;;;25.32;29.82;100321.94;1815041;77;21182;-84
2022/09/09 11:40:10;;;;;;;3.83;2.00;;;;;;;25.44;29.94;100320.45;1814028;77;21032;-81
2022/09/09 11:42:36;;;;;;;3.87;2.10;;;;;;;25.75;29.87;100320.31;1817409;76;21053;-81
2022/09/09 11:45:25;;;;;;;3.70;2.10;;;;;;;26.33;29.42;100315.73;1823656;76;21010;-84
2022/09/09 11:47:54;;;;;;;2.58;2.10;;;;;;;26.95;28.88;100302.89;1816593;78;21029;-84
2022/09/09 11:50:26;;;;;;;6.47;2.37;;;;;;;27.60;28.29;100302.67;1825162;77;21436;-83
2022/09/09 11:53:14;;;;;;;2.55;2.12;;;;;;;27.84;27.74;100300.30;1781220;78;21228;-84
2022/09/09 11:55:41;;;;;;;3.77;2.87;;;;;;;27.67;27.87;100295.06;1816100;78;21073;-75
2022/09/09 11:58:15;;;;;;;5.75;2.50;;;;;;;27.39;28.69;100291.70;1813726;77;21066;-76
2022/09/09 12:00:47;;;;;;;3.47;2.20;;;;;;;27.09;28.93;100293.70;1815466;77;21033;-78